Search for airport 
image banner adimage banner adimage banner ad
image banner ad

5PS5 - Chestnut Hill

Located in Duncannon, United States

ICAO - 5PS5, IATA -

Data provided by Airmate  

General information

Coordinates: N40°23'48" W77°4'27"
Elevation is 620 feet MSL.
Magnetic variation is -10° East
View others Airports in Pennsylvania

Operational data

Special qualification required
Current time UTC:
Current local time:
Weather at : KCXY - Capital City ( 27 km )
METAR: KCXY 152156Z 29012G17KT 10SM FEW055 BKN110 24/13 A2980 RMK AO2 SLP090 T02440128
View NOTAMs / SUP AIP / TFR affecting this airport [VIEW]
Communications frequencies: [VIEW]

Runways:

RWY identifierQFULength (ft)Width (ft)SurfaceLDA (ft)
071700100GRASS
251700100GRASS

Airport contact information

Address: Duncannon United States

Satellite view of 5PS5